War Admiral — WDB7881 — position and weather

sailwx.info

Track history (hours):
 
Tides and Currents Weather Stations Pressure Air Temp Water Temp Dewpoint Dewpoint Depression Visibility Wind Speed Wind Dir Waves Ship Positions

War Admiral

Owner: POINT MARINE, L.L.C., NEW ORLEANS,, LA. More information available from US FCC via Universal Licensing System and Coast Guard Vessel Documentation Center.

Last reported at 2015-May-08 04:22 UTC. Time now 2015-May-30 22:38 UTC.
Position N 32°24' W 117°56'.
Warning: this ship's position is 22 days out of date.

Length 66 m; draft 3.7 m.

Type: Cargo ship. MMSI: 368164000.

Date/timePositionNaut miles runAvg speedWind from/ knotsBaromVisibWave heightAir tempDewpointWater temp
2015-May-08 04:22N 32°24' W 117°56'1110.1
2015-May-08 03:18N 32°34' W 118°01'8 9.8
2015-May-08 02:30N 32°41' W 118°05'1010.5
2015-May-08 01:33N 32°49' W 118°12'1210.6
2015-May-08 00:25N 32°59' W 118°21'  
2015-May-02 21:12N 34°09' W 119°12'0 0.0
2015-May-02 20:33N 34°09' W 119°12'0 0.0
2015-May-02 19:07N 34°09' W 119°12'0 0.0
2015-May-02 18:30N 34°09' W 119°12'0 0.0
2015-May-02 17:33N 34°09' W 119°12'0 0.0
2015-May-02 16:31N 34°09' W 119°12'0 0.0
2015-May-02 15:33N 34°09' W 119°12'0 0.0
2015-May-02 14:33N 34°09' W 119°12'0 0.0
2015-May-02 13:32N 34°09' W 119°12'0 0.0
2015-May-02 12:14N 34°09' W 119°12'0 0.0
2015-May-02 11:33N 34°09' W 119°12'0 0.0
2015-May-02 10:33N 34°09' W 119°12'0 0.0
2015-May-02 09:32N 34°09' W 119°12'0 0.0
2015-May-02 08:33N 34°09' W 119°12'0 0.0
2015-May-02 07:33N 34°09' W 119°12'0 0.0
2015-May-02 05:33N 34°09' W 119°12'0 0.0
2015-May-02 04:32N 34°09' W 119°12'2 0.9
2015-May-02 02:31N 34°08' W 119°14'46 7.6
2015-May-01 20:31N 34°25' W 120°06'10 0.3
2015-Apr-30 14:05N 34°21' W 120°17'11 1.4
2015-Apr-30 06:07N 34°22' W 120°03'2810.3
2015-Apr-30 03:25N 34°14' W 119°31'16 5.2
2015-Apr-30 00:20N 34°09' W 119°12'0 0.0
2015-Apr-29 23:29N 34°09' W 119°12'0 0.0
2015-Apr-29 22:20N 34°09' W 119°12'0 0.0
2015-Apr-29 21:20N 34°09' W 119°12'0 0.0
2015-Apr-29 20:11N 34°09' W 119°12'0 0.0
2015-Apr-29 19:32N 34°09' W 119°12'0 0.0
2015-Apr-29 18:32N 34°09' W 119°12'2417.5
2015-Apr-29 17:11N 33°45' W 119°12'24 8.4
2015-Apr-29 14:23N 34°09' W 119°12'0 0.0
2015-Apr-29 09:28N 34°09' W 119°12'0 0.0
2015-Apr-29 08:28N 34°09' W 119°12'3 3.1
2015-Apr-29 07:33N 34°08' W 119°16'1211.8
2015-Apr-29 06:33N 34°11' W 119°29'1211.8
2015-Apr-29 05:33N 34°15' W 119°43'25 3.5
2015-Apr-28 22:31N 34°22' W 120°11'4 3.6
2015-Apr-28 21:31N 34°23' W 120°07'  
Track history (hours):
 
Tides and Currents Weather Stations Pressure Air Temp Water Temp Dewpoint Dewpoint Depression Visibility Wind Speed Wind Dir Waves Ship Positions

War Admiral

Owner: POINT MARINE, L.L.C., NEW ORLEANS,, LA. More information available from US FCC via Universal Licensing System and Coast Guard Vessel Documentation Center.

Last reported at 2015-May-08 04:22 UTC. Time now 2015-May-30 22:38 UTC.
Position N 32°24' W 117°56'.
Warning: this ship's position is 22 days out of date.

Length 66 m; draft 3.7 m.

Type: Cargo ship. MMSI: 368164000.

Date/timePositionNaut miles runAvg speedWind from/ knotsBaromVisibWave heightAir tempDewpointWater temp
2015-May-08 04:22N 32°24' W 117°56'1110.1
2015-May-08 03:18N 32°34' W 118°01'8 9.8
2015-May-08 02:30N 32°41' W 118°05'1010.5
2015-May-08 01:33N 32°49' W 118°12'1210.6
2015-May-08 00:25N 32°59' W 118°21'  
2015-May-02 21:12N 34°09' W 119°12'0 0.0
2015-May-02 20:33N 34°09' W 119°12'0 0.0
2015-May-02 19:07N 34°09' W 119°12'0 0.0
2015-May-02 18:30N 34°09' W 119°12'0 0.0
2015-May-02 17:33N 34°09' W 119°12'0 0.0
2015-May-02 16:31N 34°09' W 119°12'0 0.0
2015-May-02 15:33N 34°09' W 119°12'0 0.0
2015-May-02 14:33N 34°09' W 119°12'0 0.0
2015-May-02 13:32N 34°09' W 119°12'0 0.0
2015-May-02 12:14N 34°09' W 119°12'0 0.0
2015-May-02 11:33N 34°09' W 119°12'0 0.0
2015-May-02 10:33N 34°09' W 119°12'0 0.0
2015-May-02 09:32N 34°09' W 119°12'0 0.0
2015-May-02 08:33N 34°09' W 119°12'0 0.0
2015-May-02 07:33N 34°09' W 119°12'0 0.0
2015-May-02 05:33N 34°09' W 119°12'0 0.0
2015-May-02 04:32N 34°09' W 119°12'2 0.9
2015-May-02 02:31N 34°08' W 119°14'46 7.6
2015-May-01 20:31N 34°25' W 120°06'10 0.3
2015-Apr-30 14:05N 34°21' W 120°17'11 1.4
2015-Apr-30 06:07N 34°22' W 120°03'2810.3
2015-Apr-30 03:25N 34°14' W 119°31'16 5.2
2015-Apr-30 00:20N 34°09' W 119°12'0 0.0
2015-Apr-29 23:29N 34°09' W 119°12'0 0.0
2015-Apr-29 22:20N 34°09' W 119°12'0 0.0
2015-Apr-29 21:20N 34°09' W 119°12'0 0.0
2015-Apr-29 20:11N 34°09' W 119°12'0 0.0
2015-Apr-29 19:32N 34°09' W 119°12'0 0.0
2015-Apr-29 18:32N 34°09' W 119°12'2417.5
2015-Apr-29 17:11N 33°45' W 119°12'24 8.4
2015-Apr-29 14:23N 34°09' W 119°12'0 0.0
2015-Apr-29 09:28N 34°09' W 119°12'0 0.0
2015-Apr-29 08:28N 34°09' W 119°12'3 3.1
2015-Apr-29 07:33N 34°08' W 119°16'1211.8
2015-Apr-29 06:33N 34°11' W 119°29'1211.8
2015-Apr-29 05:33N 34°15' W 119°43'25 3.5
2015-Apr-28 22:31N 34°22' W 120°11'4 3.6
2015-Apr-28 21:31N 34°23' W 120°07'  

Dump ship's entire track history